Time;durP1;ratioP1;P1;durP2;ratioP2;P2;SDS_P1;SDS_P2;PMS_P1;PMS_P2;Temp;Humidity;BMP_temperature;BMP_pressure;BME280_temperature;BME280_humidity;BME280_pressure;Samples;Min_cycle;Max_cycle;Signal;HPM_P1;HPM_P2
2022/10/08 00:00:51;;;;;;;;;;;19.80;68.50;;;;;;4430272;32;20045;-72
2022/10/08 00:03:18;;;;;;;;;;;19.80;68.50;;;;;;4414248;32;20117;-73
2022/10/08 00:05:53;;;;;;;;;;;19.80;68.60;;;;;;4430495;32;20053;-72
2022/10/08 00:08:19;;;;;;;;;;;19.80;68.60;;;;;;4425625;32;19998;-73
2022/10/08 00:10:50;;;;;;;;;;;19.80;68.60;;;;;;4429828;32;20399;-73
2022/10/08 00:13:16;;;;;;;;;;;19.80;68.60;;;;;;4429715;32;20414;-74
2022/10/08 00:15:42;;;;;;;;;;;19.80;68.60;;;;;;4416591;32;20041;-73
2022/10/08 00:18:07;;;;;;;;;;;19.80;68.60;;;;;;4430115;32;20006;-73
2022/10/08 00:20:34;;;;;;;;;;;19.80;68.60;;;;;;4430159;32;20012;-73
2022/10/08 00:23:00;;;;;;;;;;;19.80;68.60;;;;;;4430255;32;20412;-73
2022/10/08 00:25:26;;;;;;;;;;;19.80;68.60;;;;;;4430341;32;19997;-73
2022/10/08 00:27:53;;;;;;;;;;;19.80;68.60;;;;;;4430086;32;20419;-73
2022/10/08 00:30:19;;;;;;;;;;;19.80;68.60;;;;;;4430155;32;20475;-73
2022/10/08 00:32:45;;;;;;;;;;;19.80;68.70;;;;;;4430048;32;19971;-73
2022/10/08 00:35:11;;;;;;;;;;;19.70;68.60;;;;;;4430278;32;19995;-73
2022/10/08 00:37:37;;;;;;;;;;;19.70;68.60;;;;;;4430030;32;19966;-73
2022/10/08 00:40:03;;;;;;;;;;;19.70;68.60;;;;;;4429524;32;19982;-73
2022/10/08 00:42:28;;;;;;;;;;;19.70;68.60;;;;;;4429892;32;20026;-73
2022/10/08 00:44:56;;;;;;;;;;;19.70;68.60;;;;;;4429905;32;20057;-73
2022/10/08 00:47:22;;;;;;;;;;;19.70;68.60;;;;;;4416072;32;20328;-73
2022/10/08 00:49:48;;;;;;;;;;;19.70;68.60;;;;;;4429728;32;20436;-73
2022/10/08 00:52:15;;;;;;;;;;;19.70;69.50;;;;;;4430250;32;19990;-73
2022/10/08 00:54:40;;;;;;;;;;;19.70;68.70;;;;;;4401024;32;19975;-73
2022/10/08 00:57:07;;;;;;;;;;;19.70;68.70;;;;;;4428742;32;19971;-73
2022/10/08 00:59:33;;;;;;;;;;;19.70;68.60;;;;;;4430330;32;20401;-73
2022/10/08 01:01:59;;;;;;;;;;;19.70;68.60;;;;;;4430004;32;20073;-73
2022/10/08 01:04:25;;;;;;;;;;;19.70;68.60;;;;;;4403793;32;20377;-73
2022/10/08 01:06:51;;;;;;;;;;;19.70;68.70;;;;;;4430058;32;20005;-73
2022/10/08 01:09:27;;;;;;;;;;;19.70;68.60;;;;;;4430131;32;19967;-72
2022/10/08 01:12:15;;;;;;;;;;;19.70;68.70;;;;;;4416067;32;19978;-73
2022/10/08 01:15:07;;;;;;;;;;;19.70;68.70;;;;;;4416454;32;20109;-73
2022/10/08 01:17:52;;;;;;;;;;;19.60;68.60;;;;;;4428243;32;20029;-73
2022/10/08 01:20:32;;;;;;;;;;;19.60;68.60;;;;;;4429935;32;20090;-73
2022/10/08 01:23:16;;;;;;;;;;;19.60;68.60;;;;;;4430144;32;20122;-73
2022/10/08 01:25:56;;;;;;;;;;;19.60;68.60;;;;;;4429905;32;20483;-73
2022/10/08 01:28:28;;;;;;;;;;;19.60;68.60;;;;;;4430227;32;20060;-73
2022/10/08 01:31:00;;;;;;;;;;;19.60;68.60;;;;;;4429785;32;19985;-74
2022/10/08 01:33:30;;;;;;;;;;;19.60;68.60;;;;;;4429990;32;20405;-73
2022/10/08 01:35:58;;;;;;;;;;;19.60;68.70;;;;;;4429713;32;19975;-72
2022/10/08 01:38:26;;;;;;;;;;;19.60;68.70;;;;;;4430183;32;19989;-73
2022/10/08 01:40:57;;;;;;;;;;;19.60;68.60;;;;;;4429477;32;19990;-73
2022/10/08 01:43:26;;;;;;;;;;;19.60;68.70;;;;;;4429837;32;19975;-73
2022/10/08 01:45:55;;;;;;;;;;;19.60;68.70;;;;;;4426953;32;20112;-73
2022/10/08 01:48:31;;;;;;;;;;;19.60;68.70;;;;;;4428753;32;19983;-73
2022/10/08 01:51:03;;;;;;;;;;;19.60;68.70;;;;;;4430118;32;20039;-73
2022/10/08 01:53:32;;;;;;;;;;;19.60;68.80;;;;;;4431646;32;20041;-73
2022/10/08 01:56:00;;;;;;;;;;;19.60;68.70;;;;;;4431851;32;20033;-73
2022/10/08 01:58:30;;;;;;;;;;;19.60;68.80;;;;;;4433340;32;20328;-73
2022/10/08 02:00:58;;;;;;;;;;;19.60;68.70;;;;;;4431269;32;19983;-73
2022/10/08 02:03:24;;;;;;;;;;;19.60;68.80;;;;;;4433232;32;19987;-73
2022/10/08 02:05:57;;;;;;;;;;;19.60;68.80;;;;;;4431535;32;20077;-73
2022/10/08 02:08:23;;;;;;;;;;;19.60;68.70;;;;;;4431124;32;19974;-73
2022/10/08 02:10:50;;;;;;;;;;;19.60;68.70;;;;;;4431439;32;20391;-73
2022/10/08 02:13:16;;;;;;;;;;;19.60;68.80;;;;;;4431583;32;19975;-73
2022/10/08 02:15:45;;;;;;;;;;;19.60;68.80;;;;;;4431532;32;20019;-73
2022/10/08 02:18:17;;;;;;;;;;;19.60;68.80;;;;;;4431252;32;19979;-73
2022/10/08 02:20:42;;;;;;;;;;;19.60;68.80;;;;;;4406191;32;20121;-73
2022/10/08 02:23:28;;;;;;;;;;;19.60;68.80;;;;;;4431362;32;20096;-73
2022/10/08 02:25:54;;;;;;;;;;;19.50;68.70;;;;;;4431418;32;20047;-73
2022/10/08 02:28:29;;;;;;;;;;;19.50;68.70;;;;;;4419243;32;20321;-73
2022/10/08 02:30:58;;;;;;;;;;;19.50;68.70;;;;;;4431219;32;19967;-73
2022/10/08 02:33:32;;;;;;;;;;;19.50;68.70;;;;;;4431552;32;19986;-73
2022/10/08 02:35:59;;;;;;;;;;;19.50;68.70;;;;;;4431542;32;20024;-73
2022/10/08 02:38:34;;;;;;;;;;;19.50;68.70;;;;;;4417878;32;19986;-73
2022/10/08 02:41:02;;;;;;;;;;;19.50;68.70;;;;;;4431471;32;20056;-73
2022/10/08 02:43:30;;;;;;;;;;;19.50;68.70;;;;;;4431677;32;20093;-73
2022/10/08 02:46:02;;;;;;;;;;;19.50;68.70;;;;;;4431607;32;20057;-73
2022/10/08 02:48:32;;;;;;;;;;;19.50;68.70;;;;;;4432675;32;20148;-73
2022/10/08 02:51:04;;;;;;;;;;;19.50;68.70;;;;;;4430449;32;20026;-73
2022/10/08 02:53:31;;;;;;;;;;;19.50;68.70;;;;;;4430503;32;20037;-73
2022/10/08 02:56:16;;;;;;;;;;;19.50;68.70;;;;;;4430336;32;19979;-73
2022/10/08 02:58:42;;;;;;;;;;;19.50;68.70;;;;;;4429771;32;20010;-73
2022/10/08 03:01:25;;;;;;;;;;;19.50;68.80;;;;;;4412757;32;20306;-73
2022/10/08 03:03:57;;;;;;;;;;;19.50;68.70;;;;;;4429202;32;20181;-73
2022/10/08 03:06:24;;;;;;;;;;;19.50;68.70;;;;;;4431343;32;20389;-73
2022/10/08 03:08:50;;;;;;;;;;;19.50;68.80;;;;;;4431054;32;19982;-73
2022/10/08 03:11:16;;;;;;;;;;;19.50;68.70;;;;;;4431157;32;20423;-73
2022/10/08 03:13:43;;;;;;;;;;;19.50;68.70;;;;;;4431051;32;19963;-73
2022/10/08 03:16:12;;;;;;;;;;;19.50;68.70;;;;;;4414905;32;19991;-73
2022/10/08 03:18:38;;;;;;;;;;;19.50;68.70;;;;;;4428802;32;19998;-73
2022/10/08 03:21:06;;;;;;;;;;;19.50;68.80;;;;;;4430895;32;19979;-73
2022/10/08 03:23:32;;;;;;;;;;;19.50;68.80;;;;;;4431159;32;20169;-73
2022/10/08 03:25:57;;;;;;;;;;;19.50;68.70;;;;;;4417146;32;19982;-73
2022/10/08 03:28:23;;;;;;;;;;;19.40;68.70;;;;;;4431232;32;20405;-73
2022/10/08 03:30:49;;;;;;;;;;;19.40;68.60;;;;;;4431675;32;20009;-73
2022/10/08 03:33:14;;;;;;;;;;;19.40;68.60;;;;;;4440921;32;20097;-73
2022/10/08 03:35:46;;;;;;;;;;;19.40;68.60;;;;;;4417442;32;19974;-73
2022/10/08 03:38:17;;;;;;;;;;;19.40;68.70;;;;;;4431168;32;19990;-72
2022/10/08 03:40:43;;;;;;;;;;;19.40;68.70;;;;;;4431043;32;20003;-73
2022/10/08 03:43:09;;;;;;;;;;;19.40;68.70;;;;;;4430457;32;20060;-73
2022/10/08 03:45:36;;;;;;;;;;;19.40;68.70;;;;;;4431027;32;20336;-73
2022/10/08 03:48:01;;;;;;;;;;;19.40;68.70;;;;;;4429805;32;19983;-73
2022/10/08 03:50:27;;;;;;;;;;;19.40;68.70;;;;;;4416968;32;19971;-73
2022/10/08 03:52:53;;;;;;;;;;;19.40;68.70;;;;;;4429391;32;20132;-74
2022/10/08 03:55:19;;;;;;;;;;;19.40;68.70;;;;;;4429545;32;20138;-73
2022/10/08 03:57:45;;;;;;;;;;;19.40;68.70;;;;;;4429377;32;19975;-73
2022/10/08 04:00:11;;;;;;;;;;;19.40;68.70;;;;;;4417093;32;19959;-73
2022/10/08 04:02:37;;;;;;;;;;;19.40;68.70;;;;;;4429436;32;19990;-73
2022/10/08 04:05:03;;;;;;;;;;;19.40;68.70;;;;;;4429206;32;20049;-73
2022/10/08 04:07:29;;;;;;;;;;;19.40;68.70;;;;;;4429377;32;20115;-73
2022/10/08 04:09:55;;;;;;;;;;;19.40;68.70;;;;;;4429157;32;19978;-74
2022/10/08 04:12:21;;;;;;;;;;;19.40;68.70;;;;;;4429448;32;19971;-73
2022/10/08 04:14:46;;;;;;;;;;;19.40;68.70;;;;;;4429682;32;20058;-73
2022/10/08 04:17:12;;;;;;;;;;;19.40;68.70;;;;;;4416240;32;20324;-73
2022/10/08 04:19:38;;;;;;;;;;;19.30;68.60;;;;;;4430404;32;19974;-73
2022/10/08 04:22:04;;;;;;;;;;;19.30;68.70;;;;;;4431225;32;20074;-73
2022/10/08 04:24:30;;;;;;;;;;;19.30;68.70;;;;;;4430610;32;20514;-73
2022/10/08 04:26:55;;;;;;;;;;;19.30;68.70;;;;;;4430384;32;19982;-73
2022/10/08 04:29:24;;;;;;;;;;;19.30;68.70;;;;;;4430024;32;19982;-73
2022/10/08 04:31:49;;;;;;;;;;;19.30;68.70;;;;;;4430346;32;19982;-73
2022/10/08 04:34:15;;;;;;;;;;;19.30;68.70;;;;;;4430013;32;19978;-73
2022/10/08 04:36:41;;;;;;;;;;;19.30;68.70;;;;;;4416074;32;20010;-72
2022/10/08 04:39:08;;;;;;;;;;;19.30;69.50;;;;;;4430126;32;20186;-73
2022/10/08 04:41:33;;;;;;;;;;;19.30;68.60;;;;;;4429702;32;20389;-73
2022/10/08 04:44:02;;;;;;;;;;;19.30;68.70;;;;;;4430097;32;20005;-73
2022/10/08 04:46:28;;;;;;;;;;;19.30;68.60;;;;;;4429782;32;19975;-73
2022/10/08 04:48:54;;;;;;;;;;;19.30;68.70;;;;;;4430045;32;19974;-73
2022/10/08 04:51:22;;;;;;;;;;;19.30;68.70;;;;;;4429695;32;20306;-73
2022/10/08 04:53:48;;;;;;;;;;;19.30;68.70;;;;;;4430135;32;19966;-73
2022/10/08 04:56:18;;;;;;;;;;;19.30;68.70;;;;;;4429618;32;19990;-73
2022/10/08 04:58:44;;;;;;;;;;;19.30;68.70;;;;;;4430320;32;20030;-73
2022/10/08 05:01:11;;;;;;;;;;;19.30;68.70;;;;;;4429826;32;19993;-73
2022/10/08 05:03:38;;;;;;;;;;;19.30;68.70;;;;;;4429702;32;20053;-73
2022/10/08 05:06:05;;;;;;;;;;;19.30;68.70;;;;;;4429809;32;20339;-73
2022/10/08 05:08:31;;;;;;;;;;;19.30;68.70;;;;;;4429411;32;19989;-73
2022/10/08 05:10:57;;;;;;;;;;;19.30;68.70;;;;;;4429771;32;20061;-73
2022/10/08 05:13:23;;;;;;;;;;;19.30;68.70;;;;;;4429282;32;20119;-73
2022/10/08 05:15:48;;;;;;;;;;;19.30;68.70;;;;;;4429897;32;20363;-73
2022/10/08 05:18:14;;;;;;;;;;;19.30;68.60;;;;;;4429513;32;19978;-72
2022/10/08 05:20:40;;;;;;;;;;;19.30;68.60;;;;;;4429590;32;20018;-72
2022/10/08 05:23:06;;;;;;;;;;;19.30;68.60;;;;;;4429629;32;20294;-73
2022/10/08 05:25:33;;;;;;;;;;;19.30;68.70;;;;;;4430672;32;19978;-72
2022/10/08 05:27:59;;;;;;;;;;;19.30;68.70;;;;;;4432651;32;19989;-73
2022/10/08 05:30:25;;;;;;;;;;;19.30;69.50;;;;;;4440224;32;19979;-72
2022/10/08 05:32:50;;;;;;;;;;;19.20;68.60;;;;;;4434176;32;20427;-72
2022/10/08 05:35:16;;;;;;;;;;;19.20;68.60;;;;;;4432741;32;20308;-73
2022/10/08 05:37:42;;;;;;;;;;;19.20;68.50;;;;;;4432461;32;20014;-73
2022/10/08 05:40:08;;;;;;;;;;;19.20;68.60;;;;;;4432575;32;20477;-71
2022/10/08 05:42:37;;;;;;;;;;;19.20;68.60;;;;;;4431987;32;19975;-73
2022/10/08 05:45:03;;;;;;;;;;;19.20;68.50;;;;;;4432913;32;20305;-73
2022/10/08 05:47:29;;;;;;;;;;;19.20;68.60;;;;;;4432668;32;20470;-73
2022/10/08 05:49:54;;;;;;;;;;;19.20;68.60;;;;;;4432365;32;20383;-73
2022/10/08 05:52:21;;;;;;;;;;;19.20;68.60;;;;;;4432635;32;20022;-72
2022/10/08 05:54:48;;;;;;;;;;;19.20;68.60;;;;;;4418523;32;20522;-73
2022/10/08 05:57:13;;;;;;;;;;;19.20;68.60;;;;;;4432604;32;19998;-72
2022/10/08 05:59:39;;;;;;;;;;;19.20;68.50;;;;;;4432231;32;20018;-73
2022/10/08 06:02:05;;;;;;;;;;;19.20;68.60;;;;;;4432406;32;19975;-73
2022/10/08 06:04:34;;;;;;;;;;;19.20;68.60;;;;;;4432420;32;20124;-73
2022/10/08 06:07:00;;;;;;;;;;;19.20;68.60;;;;;;4432058;32;20312;-73
2022/10/08 06:09:26;;;;;;;;;;;19.20;68.60;;;;;;4431885;32;20034;-73
2022/10/08 06:11:51;;;;;;;;;;;19.20;68.60;;;;;;4431710;32;20049;-73
2022/10/08 06:14:19;;;;;;;;;;;19.20;68.60;;;;;;4418375;32;19978;-73
2022/10/08 06:16:45;;;;;;;;;;;19.20;68.60;;;;;;4418135;32;19975;-73
2022/10/08 06:19:11;;;;;;;;;;;19.20;68.60;;;;;;4418415;32;19978;-73
2022/10/08 06:21:39;;;;;;;;;;;19.20;68.60;;;;;;4432103;32;20031;-73
2022/10/08 06:24:06;;;;;;;;;;;19.10;68.60;;;;;;4431881;32;20010;-73
2022/10/08 06:26:33;;;;;;;;;;;19.10;68.50;;;;;;4432064;32;20467;-74
2022/10/08 06:28:59;;;;;;;;;;;19.20;68.60;;;;;;4431917;32;20030;-74
2022/10/08 06:31:25;;;;;;;;;;;19.10;68.50;;;;;;4432007;32;20289;-73
2022/10/08 06:33:54;;;;;;;;;;;19.10;68.50;;;;;;4431896;32;19981;-73
2022/10/08 06:36:25;;;;;;;;;;;19.10;68.60;;;;;;4417498;32;20018;-73
2022/10/08 06:38:55;;;;;;;;;;;19.10;68.50;;;;;;4431557;32;19979;-72
2022/10/08 06:41:22;;;;;;;;;;;19.10;68.50;;;;;;4431233;32;20180;-73
2022/10/08 06:43:48;;;;;;;;;;;19.10;68.60;;;;;;4431919;32;19979;-72
2022/10/08 06:46:15;;;;;;;;;;;19.10;68.60;;;;;;4431533;32;20418;-72
2022/10/08 06:48:40;;;;;;;;;;;19.10;68.50;;;;;;4431734;32;20108;-72
2022/10/08 06:51:08;;;;;;;;;;;19.10;68.40;;;;;;4431462;32;20415;-73
2022/10/08 06:53:34;;;;;;;;;;;19.10;67.90;;;;;;4431730;32;19999;-73
2022/10/08 06:56:03;;;;;;;;;;;19.10;67.60;;;;;;4431522;32;20302;-72
2022/10/08 06:58:29;;;;;;;;;;;19.10;67.20;;;;;;4431220;32;20050;-73
2022/10/08 07:01:01;;;;;;;;;;;19.00;67.00;;;;;;4431528;32;20603;-73
2022/10/08 07:03:27;;;;;;;;;;;19.00;67.40;;;;;;4431220;32;19983;-72
2022/10/08 07:05:53;;;;;;;;;;;19.00;67.60;;;;;;4431494;32;19991;-73
2022/10/08 07:08:19;;;;;;;;;;;19.00;67.70;;;;;;4431040;32;20417;-73
2022/10/08 07:10:45;;;;;;;;;;;19.00;67.70;;;;;;4431698;32;19977;-73
2022/10/08 07:13:11;;;;;;;;;;;19.00;67.80;;;;;;4431010;32;19971;-73
2022/10/08 07:15:37;;;;;;;;;;;19.10;68.00;;;;;;4417394;32;20053;-73
2022/10/08 07:18:03;;;;;;;;;;;19.00;67.90;;;;;;4430421;32;19986;-74
2022/10/08 07:20:29;;;;;;;;;;;19.00;68.00;;;;;;4429537;32;19997;-73
2022/10/08 07:22:54;;;;;;;;;;;19.00;68.00;;;;;;4429805;32;20022;-71
2022/10/08 07:25:21;;;;;;;;;;;19.10;68.10;;;;;;4430370;32;20053;-71
2022/10/08 07:27:47;;;;;;;;;;;19.10;68.20;;;;;;4429173;32;19963;-71
2022/10/08 07:30:13;;;;;;;;;;;19.10;68.30;;;;;;4430521;32;19985;-71
2022/10/08 07:32:39;;;;;;;;;;;19.10;68.20;;;;;;4430384;32;20018;-71
2022/10/08 07:35:05;;;;;;;;;;;19.10;68.20;;;;;;4430286;32;20026;-71
2022/10/08 07:37:32;;;;;;;;;;;19.10;68.30;;;;;;4430440;32;19978;-71
2022/10/08 07:39:58;;;;;;;;;;;19.10;68.30;;;;;;4430259;32;20117;-71
2022/10/08 07:42:24;;;;;;;;;;;19.10;68.40;;;;;;4428277;32;20061;-71
2022/10/08 07:44:50;;;;;;;;;;;19.10;68.40;;;;;;4427002;32;19979;-71
2022/10/08 07:47:18;;;;;;;;;;;19.10;68.50;;;;;;4429462;32;20014;-71
2022/10/08 07:49:44;;;;;;;;;;;19.10;68.50;;;;;;4430457;32;19979;-70
2022/10/08 07:52:09;;;;;;;;;;;19.10;68.50;;;;;;4430530;32;20010;-70
2022/10/08 07:54:35;;;;;;;;;;;19.20;68.60;;;;;;4416777;32;20025;-71
2022/10/08 07:57:01;;;;;;;;;;;19.10;68.60;;;;;;4430409;32;20108;-71
2022/10/08 07:59:27;;;;;;;;;;;19.20;68.60;;;;;;4430464;32;19981;-71
2022/10/08 08:01:54;;;;;;;;;;;19.20;68.60;;;;;;4430372;32;20013;-71
2022/10/08 08:04:23;;;;;;;;;;;19.20;68.60;;;;;;4430348;32;19971;-71
2022/10/08 08:06:51;;;;;;;;;;;19.20;68.70;;;;;;4430204;32;19985;-71
2022/10/08 08:09:17;;;;;;;;;;;19.20;69.70;;;;;;4429941;32;20401;-71
2022/10/08 08:11:44;;;;;;;;;;;19.20;68.90;;;;;;4431868;32;19998;-71
2022/10/08 08:14:12;;;;;;;;;;;19.20;68.80;;;;;;4430155;32;20052;-70
2022/10/08 08:16:38;;;;;;;;;;;19.20;68.90;;;;;;4430179;32;19971;-71
2022/10/08 08:19:04;;;;;;;;;;;19.20;69.00;;;;;;4430142;32;20381;-71
2022/10/08 08:21:30;;;;;;;;;;;19.20;68.90;;;;;;4432620;32;20021;-70
2022/10/08 08:23:57;;;;;;;;;;;19.20;68.60;;;;;;4420625;32;20073;-71
2022/10/08 08:26:23;;;;;;;;;;;19.30;68.80;;;;;;4430408;32;19978;-71
2022/10/08 08:28:53;;;;;;;;;;;19.30;68.70;;;;;;4416461;32;19982;-70
2022/10/08 08:31:39;;;;;;;;;;;19.30;68.90;;;;;;4430247;32;20408;-70
2022/10/08 08:34:09;;;;;;;;;;;19.30;68.90;;;;;;4430058;32;19975;-70
2022/10/08 08:36:37;;;;;;;;;;;19.20;68.70;;;;;;4430188;32;20073;-70
2022/10/08 08:39:03;;;;;;;;;;;19.20;68.50;;;;;;4430027;32;20401;-70
2022/10/08 08:41:48;;;;;;;;;;;19.20;68.30;;;;;;4429680;32;20527;-70
2022/10/08 08:44:18;;;;;;;;;;;19.20;68.60;;;;;;4430059;32;20404;-70
2022/10/08 08:46:51;;;;;;;;;;;19.20;68.20;;;;;;4430081;32;19971;-71
2022/10/08 08:49:22;;;;;;;;;;;19.20;68.50;;;;;;4429971;32;20455;-71
2022/10/08 08:51:47;;;;;;;;;;;19.30;68.40;;;;;;4416020;32;19970;-70
2022/10/08 08:54:13;;;;;;;;;;;19.30;68.20;;;;;;4430087;32;20142;-70
2022/10/08 08:56:39;;;;;;;;;;;19.30;68.10;;;;;;4429664;32;20053;-70
2022/10/08 08:59:08;;;;;;;;;;;19.30;68.20;;;;;;4429959;32;20073;-72
2022/10/08 09:01:34;;;;;;;;;;;19.30;68.20;;;;;;4429433;32;20120;-71
2022/10/08 09:04:26;;;;;;;;;;;19.30;68.10;;;;;;4429824;32;20451;-72
2022/10/08 09:06:55;;;;;;;;;;;19.30;68.10;;;;;;4416972;32;19975;-73
2022/10/08 09:09:28;;;;;;;;;;;19.30;68.20;;;;;;4429409;32;19979;-69
2022/10/08 09:11:54;;;;;;;;;;;19.30;68.20;;;;;;4429375;32;19971;-75
2022/10/08 09:14:26;;;;;;;;;;;19.30;68.20;;;;;;4429854;32;20033;-75
2022/10/08 09:16:53;;;;;;;;;;;19.30;68.20;;;;;;4427051;32;19991;-74
2022/10/08 09:19:20;;;;;;;;;;;19.20;68.30;;;;;;4415781;32;20023;-73
2022/10/08 09:21:45;;;;;;;;;;;19.30;68.50;;;;;;4429679;32;19986;-74
2022/10/08 09:24:12;;;;;;;;;;;19.30;68.50;;;;;;4429734;32;20160;-74
2022/10/08 09:26:40;;;;;;;;;;;19.30;68.50;;;;;;4429970;32;20014;-74
2022/10/08 09:29:06;;;;;;;;;;;19.30;68.40;;;;;;4429524;32;19986;-74
2022/10/08 09:31:34;;;;;;;;;;;19.30;68.50;;;;;;4430000;32;19959;-74
2022/10/08 09:34:14;;;;;;;;;;;19.30;68.40;;;;;;4429832;32;20060;-74
2022/10/08 09:36:44;;;;;;;;;;;19.30;68.40;;;;;;4429820;32;20137;-77
2022/10/08 09:39:20;;;;;;;;;;;19.30;68.40;;;;;;4429752;32;20421;-76
2022/10/08 09:42:02;;;;;;;;;;;19.30;68.40;;;;;;4429985;32;19995;-74
2022/10/08 09:44:38;;;;;;;;;;;19.30;68.40;;;;;;4429536;32;20424;-75
2022/10/08 09:47:04;;;;;;;;;;;19.30;68.50;;;;;;4429691;32;19993;-75
2022/10/08 09:49:32;;;;;;;;;;;19.30;68.50;;;;;;4429505;32;20116;-75
2022/10/08 09:52:06;;;;;;;;;;;19.30;68.50;;;;;;4429909;32;19983;-75
2022/10/08 09:54:40;;;;;;;;;;;19.30;68.50;;;;;;4429729;32;20092;-75
2022/10/08 09:57:06;;;;;;;;;;;19.30;68.40;;;;;;4429582;32;19986;-74
2022/10/08 09:59:37;;;;;;;;;;;19.30;68.50;;;;;;4429673;32;20089;-74
2022/10/08 10:02:06;;;;;;;;;;;19.30;68.50;;;;;;4429729;32;20420;-75
2022/10/08 10:04:37;;;;;;;;;;;19.30;68.50;;;;;;4429592;32;20038;-74
2022/10/08 10:07:03;;;;;;;;;;;19.30;68.50;;;;;;4429312;32;20443;-75
2022/10/08 10:09:35;;;;;;;;;;;19.30;68.50;;;;;;4429461;32;19970;-75
2022/10/08 10:12:23;;;;;;;;;;;19.30;68.50;;;;;;4429345;32;19971;-76
2022/10/08 10:14:51;;;;;;;;;;;19.30;68.40;;;;;;4432293;32;20547;-77
2022/10/08 10:17:36;;;;;;;;;;;19.30;68.40;;;;;;4432184;32;19975;-75
2022/10/08 10:20:04;;;;;;;;;;;19.30;68.40;;;;;;4432043;32;20407;-75
2022/10/08 10:22:48;;;;;;;;;;;19.30;68.40;;;;;;4431811;32;20600;-75
2022/10/08 10:25:28;;;;;;;;;;;19.30;68.30;;;;;;4432137;32;19997;-76
2022/10/08 10:27:57;;;;;;;;;;;19.30;68.30;;;;;;4432035;32;20071;-75
2022/10/08 10:30:23;;;;;;;;;;;19.30;68.30;;;;;;4432018;32;19983;-75
2022/10/08 10:33:06;;;;;;;;;;;19.30;68.30;;;;;;4431989;32;20041;-75
2022/10/08 10:35:34;;;;;;;;;;;19.30;68.30;;;;;;4432307;32;19990;-75
2022/10/08 10:38:00;;;;;;;;;;;19.30;68.30;;;;;;4431828;32;20026;-75
2022/10/08 10:40:41;;;;;;;;;;;19.30;68.30;;;;;;4432091;32;19986;-75
2022/10/08 10:43:07;;;;;;;;;;;19.30;68.30;;;;;;4431322;32;19982;-75
2022/10/08 10:45:34;;;;;;;;;;;19.30;68.20;;;;;;4431795;32;20132;-75
2022/10/08 10:48:00;;;;;;;;;;;19.30;68.10;;;;;;4431702;32;20515;-74
2022/10/08 10:50:42;;;;;;;;;;;19.30;68.20;;;;;;4431950;32;19983;-74
2022/10/08 10:53:27;;;;;;;;;;;19.30;68.20;;;;;;4431382;32;20122;-75
2022/10/08 10:56:14;;;;;;;;;;;19.30;68.10;;;;;;4431597;32;19989;-73
2022/10/08 10:58:52;;;;;;;;;;;19.30;68.10;;;;;;4431567;32;20349;-74
2022/10/08 11:01:19;;;;;;;;;;;19.30;68.10;;;;;;4431251;32;19974;-74
2022/10/08 11:04:08;;;;;;;;;;;19.30;68.20;;;;;;4431542;32;19985;-74
2022/10/08 11:06:37;;;;;;;;;;;19.30;68.20;;;;;;4417006;32;20006;-75
2022/10/08 11:09:07;;;;;;;;;;;19.30;68.20;;;;;;4430357;32;20301;-75
2022/10/08 11:11:37;;;;;;;;;;;19.30;68.20;;;;;;4430484;32;20009;-74
2022/10/08 11:14:22;;;;;;;;;;;19.30;68.20;;;;;;4430447;32;20053;-73
2022/10/08 11:17:06;;;;;;;;;;;19.30;68.20;;;;;;4430514;32;20111;-73
2022/10/08 11:19:33;;;;;;;;;;;19.30;68.20;;;;;;4416597;32;19994;-74
2022/10/08 11:22:02;;;;;;;;;;;19.30;68.20;;;;;;4414722;32;19967;-74
2022/10/08 11:24:31;;;;;;;;;;;19.30;68.20;;;;;;4429910;32;19979;-74
2022/10/08 11:27:03;;;;;;;;;;;19.30;68.10;;;;;;4431065;32;20112;-73
2022/10/08 11:29:47;;;;;;;;;;;19.30;68.20;;;;;;4431099;32;19993;-73
2022/10/08 11:32:15;;;;;;;;;;;19.30;68.20;;;;;;4430607;32;20407;-73
2022/10/08 11:34:45;;;;;;;;;;;19.30;68.10;;;;;;4430419;32;20172;-74
2022/10/08 11:37:24;;;;;;;;;;;19.30;68.10;;;;;;4430594;32;20793;-75
2022/10/08 11:40:16;;;;;;;;;;;19.30;68.10;;;;;;4430353;32;20378;-74
2022/10/08 11:42:51;;;;;;;;;;;19.30;68.20;;;;;;4412307;32;20033;-74
2022/10/08 11:45:22;;;;;;;;;;;19.30;68.20;;;;;;4430706;32;19989;-74
2022/10/08 11:47:51;;;;;;;;;;;19.30;68.20;;;;;;4430716;32;19974;-74
2022/10/08 11:50:25;;;;;;;;;;;19.30;68.20;;;;;;4430476;32;19986;-74
2022/10/08 11:52:53;;;;;;;;;;;19.30;68.30;;;;;;4430598;32;19975;-74
2022/10/08 11:55:21;;;;;;;;;;;19.30;68.20;;;;;;4430492;32;20061;-74
2022/10/08 11:57:58;;;;;;;;;;;19.30;68.10;;;;;;4430819;32;20061;-74
2022/10/08 12:00:33;;;;;;;;;;;19.30;68.10;;;;;;4430486;32;20068;-74
2022/10/08 12:02:59;;;;;;;;;;;19.30;68.10;;;;;;4414154;32;19975;-73
2022/10/08 12:05:39;;;;;;;;;;;19.30;68.10;;;;;;4430094;32;19979;-74
2022/10/08 12:08:05;;;;;;;;;;;19.30;68.10;;;;;;4430391;32;20391;-73
2022/10/08 12:10:33;;;;;;;;;;;19.30;68.00;;;;;;4428808;32;20023;-73
2022/10/08 12:13:21;;;;;;;;;;;19.30;68.00;;;;;;4430170;32;20161;-74
2022/10/08 12:15:48;;;;;;;;;;;19.30;68.00;;;;;;4430162;32;20037;-74
2022/10/08 12:18:21;;;;;;;;;;;19.30;67.90;;;;;;4430312;32;20005;-73
2022/10/08 12:21:06;;;;;;;;;;;19.30;67.90;;;;;;4430352;32;20052;-74
2022/10/08 12:23:37;;;;;;;;;;;19.30;67.90;;;;;;4430174;32;20073;-73
2022/10/08 12:26:02;;;;;;;;;;;19.30;67.80;;;;;;4430279;32;20037;-73
2022/10/08 12:28:31;;;;;;;;;;;19.30;67.80;;;;;;4430383;32;20212;-73
2022/10/08 12:30:59;;;;;;;;;;;19.30;67.90;;;;;;4430080;32;19990;-74
2022/10/08 12:33:25;;;;;;;;;;;19.30;67.80;;;;;;4416304;32;19997;-73
2022/10/08 12:36:05;;;;;;;;;;;19.30;67.80;;;;;;4429774;32;20011;-73
2022/10/08 12:38:31;;;;;;;;;;;19.30;67.80;;;;;;4430081;32;20464;-73
2022/10/08 12:41:06;;;;;;;;;;;19.30;67.80;;;;;;4430197;32;20061;-71
2022/10/08 12:43:44;;;;;;;;;;;19.30;67.70;;;;;;4429000;32;20071;-73
2022/10/08 12:46:17;;;;;;;;;;;19.30;67.60;;;;;;4429870;32;20001;-73
2022/10/08 12:48:52;;;;;;;;;;;19.40;67.70;;;;;;4430163;32;19983;-73
2022/10/08 12:51:18;;;;;;;;;;;19.40;67.70;;;;;;4429874;32;19971;-73
2022/10/08 12:53:45;;;;;;;;;;;19.40;67.70;;;;;;4430066;32;19983;-73
2022/10/08 12:56:16;;;;;;;;;;;19.40;67.70;;;;;;4429728;32;20160;-71
2022/10/08 12:58:44;;;;;;;;;;;19.40;67.60;;;;;;4429996;32;20027;-71
2022/10/08 13:01:11;;;;;;;;;;;19.40;67.60;;;;;;4429963;32;19998;-71
2022/10/08 13:03:37;;;;;;;;;;;19.40;67.00;;;;;;4433591;32;20057;-71
2022/10/08 13:06:22;;;;;;;;;;;19.40;67.20;;;;;;4436428;32;19979;-72
2022/10/08 13:08:48;;;;;;;;;;;19.40;67.20;;;;;;4429700;32;19975;-71
2022/10/08 13:11:14;;;;;;;;;;;19.50;67.20;;;;;;4429814;32;19978;-72
2022/10/08 13:13:47;;;;;;;;;;;19.50;67.30;;;;;;4429219;32;20337;-71
2022/10/08 13:16:18;;;;;;;;;;;19.50;67.20;;;;;;4428576;32;20128;-71
2022/10/08 13:19:06;;;;;;;;;;;19.50;67.20;;;;;;4428836;32;19978;-71
2022/10/08 13:21:35;;;;;;;;;;;19.50;67.20;;;;;;4426911;32;20077;-71
2022/10/08 13:24:03;;;;;;;;;;;19.50;67.20;;;;;;4427688;32;20031;-71
2022/10/08 13:26:42;;;;;;;;;;;19.50;67.20;;;;;;4428170;32;20010;-71
2022/10/08 13:29:17;;;;;;;;;;;19.50;67.20;;;;;;4428444;32;20389;-71
2022/10/08 13:31:49;;;;;;;;;;;19.50;67.20;;;;;;4415209;32;19989;-71
2022/10/08 13:34:17;;;;;;;;;;;19.50;67.30;;;;;;4426158;32;19987;-70
2022/10/08 13:36:47;;;;;;;;;;;19.50;67.40;;;;;;4428205;32;20396;-70
2022/10/08 13:39:20;;;;;;;;;;;19.50;67.50;;;;;;4426760;32;19993;-70
2022/10/08 13:41:56;;;;;;;;;;;19.50;67.60;;;;;;4428215;32;20376;-70
2022/10/08 13:44:23;;;;;;;;;;;19.40;67.60;;;;;;4428587;32;19997;-70
2022/10/08 13:46:49;;;;;;;;;;;19.40;67.60;;;;;;4429916;32;20037;-70
2022/10/08 13:49:23;;;;;;;;;;;19.40;67.50;;;;;;4431330;32;20026;-71
2022/10/08 13:51:49;;;;;;;;;;;19.40;67.60;;;;;;4431548;32;19979;-71
2022/10/08 13:54:18;;;;;;;;;;;19.40;67.60;;;;;;4431648;32;20109;-71
2022/10/08 13:56:45;;;;;;;;;;;19.40;67.50;;;;;;4431720;32;19979;-72
2022/10/08 13:59:11;;;;;;;;;;;19.40;67.60;;;;;;4430920;32;20038;-71
2022/10/08 14:01:37;;;;;;;;;;;19.40;67.50;;;;;;4431217;32;20073;-71
2022/10/08 14:04:04;;;;;;;;;;;19.40;67.50;;;;;;4415499;32;20003;-71
2022/10/08 14:06:30;;;;;;;;;;;19.40;67.60;;;;;;4430410;32;20310;-71
2022/10/08 14:08:56;;;;;;;;;;;19.40;67.70;;;;;;4431149;32;20034;-72
2022/10/08 14:11:23;;;;;;;;;;;19.40;68.60;;;;;;4431430;32;20400;-72
2022/10/08 14:13:48;;;;;;;;;;;19.40;67.80;;;;;;4430929;32;19986;-71
2022/10/08 14:16:14;;;;;;;;;;;19.40;67.90;;;;;;4431742;32;19990;-70
2022/10/08 14:18:40;;;;;;;;;;;19.40;68.00;;;;;;4431669;32;20042;-72
2022/10/08 14:21:06;;;;;;;;;;;19.40;68.00;;;;;;4431672;32;20444;-75
2022/10/08 14:23:32;;;;;;;;;;;19.40;68.00;;;;;;4431852;32;20061;-73
2022/10/08 14:25:58;;;;;;;;;;;19.40;68.10;;;;;;4432082;32;19983;-73
2022/10/08 14:28:24;;;;;;;;;;;19.40;68.20;;;;;;4432045;32;20230;-73